createdAt,value
2023-04-30T00:01:37.205Z,25.55
2023-04-30T00:04:06.021Z,21.40
2023-04-30T00:06:34.568Z,21.42
2023-04-30T00:09:03.255Z,21.15
2023-04-30T00:11:33.034Z,21.45
2023-04-30T00:14:01.772Z,23.92
2023-04-30T00:16:31.644Z,22.65
2023-04-30T00:19:00.197Z,24.15
2023-04-30T00:21:28.608Z,27.42
2023-04-30T00:23:57.063Z,23.05
2023-04-30T00:26:25.765Z,22.23
2023-04-30T00:28:55.526Z,28.13
2023-04-30T00:31:24.380Z,22.15
2023-04-30T00:33:52.930Z,21.63
2023-04-30T00:36:22.125Z,25.02
2023-04-30T00:38:51.106Z,26.42
2023-04-30T00:41:20.289Z,23.40
2023-04-30T00:43:49.084Z,21.35
2023-04-30T00:46:19.465Z,21.80
2023-04-30T00:48:51.120Z,20.27
2023-04-30T00:51:20.362Z,22.38
2023-04-30T00:53:49.470Z,21.10
2023-04-30T00:56:18.125Z,20.98
2023-04-30T00:58:47.808Z,22.58
2023-04-30T01:01:19.184Z,24.40
2023-04-30T01:03:50.624Z,22.10
2023-04-30T01:06:20.190Z,21.58
2023-04-30T01:08:51.884Z,16.58
2023-04-30T01:11:29.980Z,29.00
2023-04-30T01:14:09.876Z,21.45
2023-04-30T01:16:47.222Z,18.70
2023-04-30T01:19:37.371Z,24.20
2023-04-30T01:22:08.293Z,21.98
2023-04-30T01:25:00.409Z,19.10
2023-04-30T01:28:02.567Z,18.27
2023-04-30T01:30:33.335Z,23.20
2023-04-30T01:33:02.860Z,20.67
2023-04-30T01:36:04.992Z,25.10
2023-04-30T01:39:02.055Z,21.58
2023-04-30T01:41:36.988Z,21.05
2023-04-30T01:44:26.294Z,20.42
2023-04-30T01:47:06.609Z,20.95
2023-04-30T01:49:49.736Z,23.83
2023-04-30T01:52:39.690Z,19.55
2023-04-30T01:55:15.875Z,22.00
2023-04-30T01:57:51.732Z,24.00
2023-04-30T02:00:20.445Z,21.88
2023-04-30T02:02:50.358Z,22.75
2023-04-30T02:05:18.937Z,25.55
2023-04-30T02:07:50.037Z,21.27
2023-04-30T02:10:20.934Z,22.58
2023-04-30T02:12:49.523Z,23.65
2023-04-30T02:15:18.287Z,24.55
2023-04-30T02:17:46.860Z,21.17
2023-04-30T02:20:17.062Z,21.60
2023-04-30T02:22:47.610Z,21.85
2023-04-30T02:25:16.045Z,21.73
2023-04-30T02:27:44.528Z,21.25
2023-04-30T02:30:13.196Z,23.15
2023-04-30T02:32:41.806Z,20.42
2023-04-30T02:35:10.819Z,22.38
2023-04-30T02:37:41.153Z,21.40
2023-04-30T02:40:11.021Z,17.70
2023-04-30T02:42:39.467Z,17.45
2023-04-30T02:45:09.429Z,25.80
2023-04-30T02:47:37.843Z,25.15
2023-04-30T02:50:07.811Z,21.00
2023-04-30T02:52:36.142Z,27.48
2023-04-30T02:55:06.783Z,19.13
2023-04-30T02:57:35.105Z,22.13
2023-04-30T03:00:04.114Z,22.35
2023-04-30T03:02:32.478Z,19.90
2023-04-30T03:05:00.973Z,20.70
2023-04-30T03:07:29.295Z,24.42
2023-04-30T03:09:57.742Z,22.42
2023-04-30T03:12:27.782Z,21.05
2023-04-30T03:14:56.013Z,27.85
2023-04-30T03:17:24.937Z,27.65
2023-04-30T03:19:53.857Z,19.95
2023-04-30T03:22:23.795Z,25.85
2023-04-30T03:24:52.272Z,24.20
2023-04-30T03:27:21.098Z,23.13
2023-04-30T03:29:51.051Z,22.60
2023-04-30T03:32:19.464Z,25.95
2023-04-30T03:34:48.311Z,21.83
2023-04-30T03:37:16.831Z,21.83
2023-04-30T03:39:45.706Z,21.63
2023-04-30T03:42:14.090Z,24.20
2023-04-30T03:44:42.404Z,21.48
2023-04-30T03:47:12.597Z,20.23
2023-04-30T03:49:41.092Z,21.05
2023-04-30T03:52:09.662Z,21.55
2023-04-30T03:54:38.147Z,24.27
2023-04-30T03:57:07.864Z,20.73
2023-04-30T03:59:36.770Z,22.77
2023-04-30T04:02:05.177Z,24.90
2023-04-30T04:04:36.470Z,22.80
2023-04-30T04:07:04.901Z,22.48
2023-04-30T04:09:33.348Z,23.17
2023-04-30T04:12:02.828Z,17.80
2023-04-30T04:14:33.461Z,20.65
2023-04-30T04:17:05.580Z,20.33
2023-04-30T04:19:35.697Z,26.15
2023-04-30T04:22:04.570Z,27.10
2023-04-30T04:24:33.285Z,24.13
2023-04-30T04:27:04.052Z,20.58
2023-04-30T04:29:32.838Z,21.00
2023-04-30T04:32:02.895Z,21.30
2023-04-30T04:34:31.260Z,20.35
2023-04-30T04:37:01.635Z,20.33
2023-04-30T04:39:30.064Z,20.10
2023-04-30T04:41:58.479Z,25.52
2023-04-30T04:44:27.280Z,22.17
2023-04-30T04:46:56.934Z,29.83
2023-04-30T04:49:25.695Z,24.80
2023-04-30T04:51:54.029Z,24.40
2023-04-30T04:54:24.496Z,23.35
2023-04-30T04:56:53.021Z,26.08
2023-04-30T04:59:21.322Z,21.27
2023-04-30T05:01:52.958Z,24.40
2023-04-30T05:04:21.449Z,20.08
2023-04-30T05:06:50.013Z,23.70
2023-04-30T05:09:18.421Z,22.67
2023-04-30T05:11:51.383Z,25.63
2023-04-30T05:14:20.962Z,23.83
2023-04-30T05:16:49.835Z,24.50
2023-04-30T05:19:18.383Z,22.05
2023-04-30T05:21:47.045Z,28.30
2023-04-30T05:24:15.419Z,22.90
2023-04-30T05:26:44.352Z,23.13
2023-04-30T05:29:14.255Z,24.42
2023-04-30T05:31:43.014Z,24.45
2023-04-30T05:34:11.418Z,22.17
2023-04-30T05:36:40.844Z,27.48
2023-04-30T05:39:10.447Z,22.15
2023-04-30T05:41:39.144Z,21.70
2023-04-30T05:44:07.778Z,22.05
2023-04-30T05:47:02.209Z,19.50
2023-04-30T05:49:31.954Z,19.60
2023-04-30T05:52:02.328Z,19.65
2023-04-30T05:54:30.669Z,23.00
2023-04-30T05:56:59.157Z,20.00
2023-04-30T05:59:27.768Z,18.42
2023-04-30T06:01:57.580Z,22.23
2023-04-30T06:04:26.022Z,19.25
2023-04-30T06:06:54.465Z,21.23
2023-04-30T06:09:22.944Z,21.02
2023-04-30T06:11:52.409Z,24.05
2023-04-30T06:14:22.730Z,20.25
2023-04-30T06:16:51.453Z,30.10
2023-04-30T06:19:21.456Z,21.58
2023-04-30T06:21:52.704Z,22.20
2023-04-30T06:24:21.004Z,18.02
2023-04-30T06:26:52.381Z,24.85
2023-04-30T06:29:21.179Z,19.73
2023-04-30T06:31:52.897Z,23.10
2023-04-30T06:34:23.088Z,20.73
2023-04-30T06:36:51.637Z,19.52
2023-04-30T06:39:20.006Z,20.38
2023-04-30T06:41:49.254Z,17.90
2023-04-30T06:44:19.012Z,22.33
2023-04-30T06:46:50.725Z,18.17
2023-04-30T06:49:19.085Z,19.25
2023-04-30T06:51:50.019Z,22.27
2023-04-30T06:54:18.405Z,14.38
2023-04-30T06:56:47.035Z,15.15
2023-04-30T06:59:15.372Z,15.10
2023-04-30T07:01:43.872Z,12.57
2023-04-30T07:04:12.579Z,14.48
2023-04-30T07:06:41.139Z,13.55
2023-04-30T07:09:11.618Z,13.43
2023-04-30T07:11:40.357Z,14.52
2023-04-30T07:14:08.789Z,13.00
2023-04-30T07:16:37.380Z,13.50
2023-04-30T07:19:06.055Z,16.35
2023-04-30T07:21:34.380Z,12.23
2023-04-30T07:24:02.961Z,13.65
2023-04-30T07:26:32.826Z,13.25
2023-04-30T07:29:01.282Z,11.70
2023-04-30T07:31:29.758Z,13.77
2023-04-30T07:33:58.493Z,12.13
2023-04-30T07:36:27.569Z,13.25
2023-04-30T07:38:56.037Z,11.98
2023-04-30T07:41:27.081Z,12.57
2023-04-30T07:43:56.792Z,12.70
2023-04-30T07:46:26.389Z,11.82
2023-04-30T07:48:54.824Z,11.95
2023-04-30T07:51:23.325Z,12.73
2023-04-30T07:53:53.286Z,16.08
2023-04-30T07:56:21.765Z,13.88
2023-04-30T07:58:50.103Z,12.10
2023-04-30T08:01:20.075Z,13.05
2023-04-30T08:03:51.676Z,10.98
2023-04-30T08:06:20.688Z,9.75
2023-04-30T08:08:50.435Z,10.25
2023-04-30T08:11:19.470Z,10.07
2023-04-30T08:13:48.801Z,11.13
2023-04-30T08:16:17.266Z,14.32
2023-04-30T08:18:49.241Z,13.18
2023-04-30T08:21:18.788Z,11.73
2023-04-30T08:23:50.173Z,14.15
2023-04-30T08:26:18.628Z,11.85
2023-04-30T08:28:46.956Z,12.50
2023-04-30T08:31:15.768Z,11.15
2023-04-30T08:33:44.052Z,9.80
2023-04-30T08:36:13.915Z,15.85
2023-04-30T08:38:42.350Z,11.95
2023-04-30T08:41:14.655Z,12.90
2023-04-30T08:43:44.326Z,10.82
2023-04-30T08:46:22.364Z,9.65
2023-04-30T08:48:51.234Z,11.65
2023-04-30T08:51:22.245Z,11.73
2023-04-30T08:53:51.896Z,10.15
2023-04-30T08:56:20.439Z,12.85
2023-04-30T08:58:52.351Z,10.88
2023-04-30T09:01:22.192Z,10.90
2023-04-30T09:03:50.809Z,10.55
2023-04-30T09:06:20.937Z,9.35
2023-04-30T09:08:50.719Z,12.13
2023-04-30T09:11:23.971Z,10.10
2023-04-30T09:13:53.882Z,11.32
2023-04-30T09:16:23.183Z,13.85
2023-04-30T09:18:52.824Z,13.85
2023-04-30T09:21:36.257Z,11.27
2023-04-30T09:24:06.894Z,11.73
2023-04-30T09:26:37.725Z,12.05
2023-04-30T09:29:08.944Z,12.10
2023-04-30T09:31:39.121Z,13.20
2023-04-30T09:34:07.919Z,12.90
2023-04-30T09:36:38.622Z,9.98
2023-04-30T09:39:15.645Z,11.35
2023-04-30T09:41:44.962Z,12.18
2023-04-30T09:44:29.375Z,12.32
2023-04-30T09:46:59.453Z,10.68
2023-04-30T09:49:28.500Z,10.88
2023-04-30T09:51:59.679Z,10.27
2023-04-30T09:54:30.135Z,11.07
2023-04-30T09:57:03.310Z,11.55
2023-04-30T09:59:35.383Z,10.50
2023-04-30T10:02:06.860Z,12.32
2023-04-30T10:04:37.430Z,13.60
2023-04-30T10:07:15.986Z,13.43
2023-04-30T10:09:52.375Z,9.63
2023-04-30T10:12:27.991Z,10.57
2023-04-30T10:15:03.689Z,9.10
2023-04-30T10:17:35.091Z,10.73
2023-04-30T10:20:08.495Z,8.77
2023-04-30T10:22:38.753Z,7.07
2023-04-30T10:25:11.445Z,9.82
2023-04-30T10:27:40.785Z,9.13
2023-04-30T10:30:12.539Z,8.85
2023-04-30T10:32:54.637Z,9.45
2023-04-30T10:35:29.073Z,8.85
2023-04-30T10:38:08.447Z,7.35
2023-04-30T10:40:38.560Z,9.20
2023-04-30T10:43:07.079Z,9.38
2023-04-30T10:45:40.398Z,12.52
2023-04-30T10:48:09.380Z,9.23
2023-04-30T10:50:45.569Z,9.68
2023-04-30T10:53:20.197Z,11.82
2023-04-30T10:55:50.618Z,11.45
2023-04-30T10:58:27.740Z,11.60
2023-04-30T11:01:05.273Z,10.07
2023-04-30T11:03:36.404Z,12.80
2023-04-30T11:06:12.867Z,11.27
2023-04-30T11:08:46.702Z,12.20
2023-04-30T11:11:21.960Z,10.80
2023-04-30T11:14:03.046Z,10.77
2023-04-30T11:16:32.038Z,11.95
2023-04-30T11:19:11.282Z,12.40
2023-04-30T11:21:42.672Z,10.50
2023-04-30T11:24:14.722Z,9.90
2023-04-30T11:27:14.565Z,10.93
2023-04-30T11:29:46.601Z,10.68
2023-04-30T11:32:15.659Z,8.65
2023-04-30T11:34:45.575Z,10.45
2023-04-30T11:37:20.547Z,10.98
2023-04-30T11:39:51.575Z,10.95
2023-04-30T11:42:20.731Z,9.50
2023-04-30T11:44:49.312Z,12.25
2023-04-30T11:47:18.380Z,13.05
2023-04-30T11:50:04.534Z,12.00
2023-04-30T11:52:32.956Z,10.20
2023-04-30T11:55:03.555Z,10.40
2023-04-30T11:57:42.354Z,9.85
2023-04-30T12:00:15.715Z,9.07
2023-04-30T12:02:49.126Z,9.80
2023-04-30T12:05:20.299Z,11.82
2023-04-30T12:07:50.828Z,9.48
2023-04-30T12:10:22.673Z,8.20
2023-04-30T12:12:53.220Z,11.15
2023-04-30T12:15:26.914Z,10.07
2023-04-30T12:17:57.421Z,8.07
2023-04-30T12:20:28.470Z,7.88
2023-04-30T12:22:57.168Z,9.85
2023-04-30T12:25:29.877Z,7.95
2023-04-30T12:28:00.954Z,11.60
2023-04-30T12:30:30.350Z,9.63
2023-04-30T12:33:03.431Z,9.02
2023-04-30T12:35:33.432Z,10.00
2023-04-30T12:38:09.636Z,7.40
2023-04-30T12:40:40.892Z,7.20
2023-04-30T12:43:10.363Z,7.82
2023-04-30T12:45:51.885Z,10.00
2023-04-30T12:48:24.491Z,8.18
2023-04-30T12:50:55.191Z,8.40
2023-04-30T12:53:24.848Z,7.78
2023-04-30T12:56:13.992Z,8.85
2023-04-30T12:58:45.627Z,7.85
2023-04-30T13:01:15.193Z,7.50
2023-04-30T13:03:44.355Z,6.10
2023-04-30T13:06:12.847Z,6.18
2023-04-30T13:08:56.298Z,5.97
2023-04-30T13:11:28.611Z,6.03
2023-04-30T13:13:56.992Z,7.25
2023-04-30T13:16:26.067Z,7.25
2023-04-30T13:18:55.375Z,6.40
2023-04-30T13:21:24.968Z,5.95
2023-04-30T13:23:54.833Z,5.53
2023-04-30T13:26:24.844Z,6.50
2023-04-30T13:28:55.128Z,5.03
2023-04-30T13:31:26.403Z,4.88
2023-04-30T13:33:55.493Z,6.07
2023-04-30T13:36:24.080Z,6.65
2023-04-30T13:38:55.041Z,3.78
2023-04-30T13:41:23.667Z,4.20
2023-04-30T13:43:53.721Z,5.25
2023-04-30T13:46:22.327Z,6.60
2023-04-30T13:48:53.133Z,6.03
2023-04-30T13:51:21.835Z,4.47
2023-04-30T13:53:50.196Z,6.22
2023-04-30T13:56:18.557Z,6.05
2023-04-30T13:58:47.726Z,6.00
2023-04-30T14:01:17.688Z,5.00
2023-04-30T14:03:47.488Z,6.63
2023-04-30T14:06:18.921Z,4.63
2023-04-30T14:08:47.946Z,4.65
2023-04-30T14:11:16.589Z,5.45
2023-04-30T14:13:45.343Z,5.57
2023-04-30T14:16:13.865Z,7.43
2023-04-30T14:18:43.940Z,6.82
2023-04-30T14:21:13.865Z,6.25
2023-04-30T14:23:42.713Z,5.18
2023-04-30T14:26:11.274Z,5.15
2023-04-30T14:28:39.758Z,5.25
2023-04-30T14:31:19.432Z,4.35
2023-04-30T14:33:52.161Z,5.03
2023-04-30T14:36:20.629Z,4.28
2023-04-30T14:38:52.038Z,4.55
2023-04-30T14:41:21.256Z,5.03
2023-04-30T14:43:49.765Z,5.07
2023-04-30T14:46:18.296Z,4.10
2023-04-30T14:48:48.612Z,6.13
2023-04-30T14:51:17.087Z,6.00
2023-04-30T14:53:45.562Z,4.22
2023-04-30T14:56:13.934Z,5.90
2023-04-30T14:58:42.226Z,4.00
2023-04-30T15:01:10.637Z,3.60
2023-04-30T15:03:39.315Z,6.05
2023-04-30T15:06:09.666Z,3.90
2023-04-30T15:08:38.285Z,4.07
2023-04-30T15:11:09.611Z,7.22
2023-04-30T15:13:38.321Z,3.67
2023-04-30T15:16:07.843Z,4.57
2023-04-30T15:18:39.259Z,4.00
2023-04-30T15:21:09.283Z,5.00
2023-04-30T15:23:37.838Z,3.83
2023-04-30T15:26:06.372Z,4.47
2023-04-30T15:28:35.097Z,2.90
2023-04-30T15:31:06.404Z,3.72
2023-04-30T15:33:39.718Z,3.67
2023-04-30T15:36:11.404Z,4.65
2023-04-30T15:38:39.963Z,2.60
2023-04-30T15:41:08.333Z,2.25
2023-04-30T15:43:37.205Z,2.22
2023-04-30T15:46:05.705Z,4.28
2023-04-30T15:48:34.404Z,5.00
2023-04-30T15:51:02.844Z,2.85
2023-04-30T15:53:33.212Z,2.58
2023-04-30T15:56:04.345Z,2.97
2023-04-30T15:58:32.927Z,3.17
2023-04-30T16:01:02.015Z,3.25
2023-04-30T16:03:31.073Z,3.20
2023-04-30T16:06:00.989Z,2.88
2023-04-30T16:08:31.418Z,4.13
2023-04-30T16:11:01.247Z,3.45
2023-04-30T16:13:29.621Z,5.35
2023-04-30T16:15:58.006Z,3.40
2023-04-30T16:18:26.486Z,4.00
2023-04-30T16:20:55.239Z,2.85
2023-04-30T16:23:23.595Z,3.63
2023-04-30T16:25:53.293Z,3.55
2023-04-30T16:28:23.764Z,3.42
2023-04-30T16:30:52.374Z,3.97
2023-04-30T16:33:21.738Z,2.53
2023-04-30T16:35:50.117Z,4.50
2023-04-30T16:38:18.589Z,5.13
2023-04-30T16:40:47.017Z,3.63
2023-04-30T16:43:18.294Z,3.78
2023-04-30T16:45:49.149Z,5.10
2023-04-30T16:48:17.696Z,5.72
2023-04-30T16:50:48.913Z,2.75
2023-04-30T16:53:17.311Z,2.00
2023-04-30T16:55:45.745Z,4.22
2023-04-30T16:58:14.219Z,3.65
2023-04-30T17:00:44.873Z,2.95
2023-04-30T17:03:13.528Z,3.63
2023-04-30T17:05:42.279Z,3.58
2023-04-30T17:08:14.356Z,3.22
2023-04-30T17:10:43.496Z,3.60
2023-04-30T17:13:13.801Z,3.05
2023-04-30T17:15:44.644Z,3.95
2023-04-30T17:18:13.198Z,3.03
2023-04-30T17:20:41.925Z,5.85
2023-04-30T17:23:10.351Z,3.50
2023-04-30T17:25:38.876Z,2.97
2023-04-30T17:28:07.368Z,3.75
2023-04-30T17:30:36.120Z,3.92
2023-04-30T17:33:06.211Z,4.07
2023-04-30T17:35:34.801Z,4.05
2023-04-30T17:38:03.266Z,9.57
2023-04-30T17:40:33.227Z,6.43
2023-04-30T17:43:02.169Z,5.70
2023-04-30T17:45:30.508Z,4.35
2023-04-30T17:47:59.500Z,3.78
2023-04-30T17:50:29.412Z,2.58
2023-04-30T17:52:58.013Z,3.92
2023-04-30T17:55:27.080Z,2.80
2023-04-30T17:57:55.915Z,2.65
2023-04-30T18:00:24.540Z,4.85
2023-04-30T18:02:53.466Z,2.40
2023-04-30T18:05:22.018Z,2.35
2023-04-30T18:07:52.351Z,3.83
2023-04-30T18:10:20.684Z,3.63
2023-04-30T18:12:50.545Z,4.78
2023-04-30T18:15:19.082Z,4.20
2023-04-30T18:17:48.162Z,4.63
2023-04-30T18:20:16.957Z,3.05
2023-04-30T18:22:48.058Z,4.22
2023-04-30T18:25:19.258Z,4.60
2023-04-30T18:27:47.962Z,3.40
2023-04-30T18:30:16.687Z,3.38
2023-04-30T18:32:45.412Z,4.47
2023-04-30T18:35:13.913Z,4.85
2023-04-30T18:37:42.333Z,4.45
2023-04-30T18:40:11.934Z,3.38
2023-04-30T18:42:42.068Z,4.18
2023-04-30T18:45:11.879Z,5.25
2023-04-30T18:47:40.529Z,4.00
2023-04-30T18:50:13.753Z,4.22
2023-04-30T18:52:42.260Z,5.68
2023-04-30T18:55:13.558Z,4.40
2023-04-30T18:57:44.000Z,4.18
2023-04-30T19:00:14.696Z,5.95
2023-04-30T19:02:44.265Z,6.13
2023-04-30T19:05:14.240Z,5.45
2023-04-30T19:07:43.437Z,4.10
2023-04-30T19:10:12.101Z,4.68
2023-04-30T19:12:40.659Z,4.28
2023-04-30T19:15:14.813Z,7.25
2023-04-30T19:17:43.463Z,4.20
2023-04-30T19:20:15.292Z,4.35
2023-04-30T19:22:44.079Z,7.18
2023-04-30T19:25:12.964Z,4.63
2023-04-30T19:27:41.780Z,5.75
2023-04-30T19:30:14.330Z,5.13
2023-04-30T19:33:26.036Z,7.45
2023-04-30T19:35:55.289Z,5.40
2023-04-30T19:38:29.796Z,5.90
2023-04-30T19:40:58.349Z,4.82
2023-04-30T19:43:27.353Z,6.07
2023-04-30T19:46:00.138Z,5.78
2023-04-30T19:48:28.699Z,5.82
2023-04-30T19:50:58.532Z,4.55
2023-04-30T19:53:27.365Z,7.15
2023-04-30T19:56:08.694Z,5.43
2023-04-30T19:58:49.430Z,7.55
2023-04-30T20:01:19.879Z,5.97
2023-04-30T20:03:48.592Z,7.40
2023-04-30T20:06:17.323Z,9.10
2023-04-30T20:08:45.983Z,5.53
2023-04-30T20:11:14.339Z,8.05
2023-04-30T20:13:43.694Z,5.78
2023-04-30T20:16:12.739Z,8.90
2023-04-30T20:18:42.623Z,9.18
2023-04-30T20:21:11.141Z,8.45
2023-04-30T20:23:40.907Z,8.45
2023-04-30T20:26:10.601Z,6.10
2023-04-30T20:28:39.394Z,5.32
2023-04-30T20:31:09.789Z,4.97
2023-04-30T20:33:39.347Z,8.48
2023-04-30T20:36:09.156Z,5.05
2023-04-30T20:38:37.730Z,6.95
2023-04-30T20:41:06.275Z,6.00
2023-04-30T20:43:34.854Z,5.97
2023-04-30T20:46:03.570Z,6.80
2023-04-30T20:48:31.872Z,6.05
2023-04-30T20:51:00.258Z,5.60
2023-04-30T20:53:30.814Z,5.53
2023-04-30T20:56:01.387Z,5.80
2023-04-30T20:58:30.540Z,7.53
2023-04-30T21:00:59.066Z,7.80
2023-04-30T21:03:28.225Z,6.97
2023-04-30T21:05:56.725Z,7.18
2023-04-30T21:08:25.224Z,5.38
2023-04-30T21:10:55.027Z,6.65
2023-04-30T21:13:23.730Z,5.55
2023-04-30T21:15:54.341Z,5.63
2023-04-30T21:18:22.850Z,5.63
2023-04-30T21:20:51.409Z,7.20
2023-04-30T21:23:20.152Z,5.18
2023-04-30T21:25:56.398Z,8.68
2023-04-30T21:28:24.764Z,7.05
2023-04-30T21:30:53.196Z,5.60
2023-04-30T21:33:21.857Z,8.25
2023-04-30T21:35:50.202Z,7.85
2023-04-30T21:38:18.590Z,7.57
2023-04-30T21:40:46.894Z,8.25
2023-04-30T21:43:17.835Z,5.60
2023-04-30T21:45:46.634Z,6.78
2023-04-30T21:48:15.025Z,7.15
2023-04-30T21:50:43.503Z,8.55
2023-04-30T21:53:12.272Z,8.18
2023-04-30T21:55:40.753Z,7.80
2023-04-30T21:58:09.225Z,6.43
2023-04-30T22:00:39.611Z,8.38
2023-04-30T22:03:10.031Z,9.23
2023-04-30T22:05:39.829Z,6.97
2023-04-30T22:08:08.513Z,6.80
2023-04-30T22:10:36.960Z,6.95
2023-04-30T22:13:05.365Z,7.88
2023-04-30T22:15:47.290Z,8.02
2023-04-30T22:18:17.997Z,7.22
2023-04-30T22:20:46.632Z,6.47
2023-04-30T22:23:15.778Z,6.53
2023-04-30T22:25:44.592Z,9.32
2023-04-30T22:28:13.020Z,7.80
2023-04-30T22:30:41.352Z,8.50
2023-04-30T22:33:09.780Z,6.60
2023-04-30T22:35:40.061Z,9.77
2023-04-30T22:38:08.830Z,8.73
2023-04-30T22:40:40.481Z,8.43
2023-04-30T22:43:10.087Z,8.65
2023-04-30T22:45:40.598Z,8.85
2023-04-30T22:48:09.821Z,7.38
2023-04-30T22:50:39.728Z,7.93
2023-04-30T22:53:08.250Z,7.28
2023-04-30T22:55:36.570Z,7.43
2023-04-30T22:58:04.813Z,10.18
2023-04-30T23:00:33.124Z,8.45
2023-04-30T23:03:01.527Z,9.65
2023-04-30T23:05:29.914Z,6.25
2023-04-30T23:07:59.573Z,7.97
2023-04-30T23:10:27.844Z,10.90
2023-04-30T23:12:56.631Z,9.68
2023-04-30T23:15:25.018Z,8.05
2023-04-30T23:17:54.557Z,7.40
2023-04-30T23:20:23.607Z,8.70
2023-04-30T23:22:51.935Z,7.65
2023-04-30T23:25:21.610Z,9.82
2023-04-30T23:27:49.910Z,9.10
2023-04-30T23:30:18.319Z,12.80
2023-04-30T23:32:46.860Z,10.30
2023-04-30T23:35:15.175Z,7.88
2023-04-30T23:37:43.483Z,10.10
2023-04-30T23:40:12.454Z,8.40
2023-04-30T23:42:42.079Z,9.38
2023-04-30T23:45:11.451Z,7.63
2023-04-30T23:47:39.777Z,9.50
2023-04-30T23:50:10.283Z,9.02
2023-04-30T23:52:38.853Z,7.20
2023-04-30T23:55:09.275Z,9.00
2023-04-30T23:57:37.570Z,7.28
